createdAt,value
2022-08-17T00:00:34.995Z,0.00
2022-08-17T00:01:24.126Z,0.00
2022-08-17T00:02:26.953Z,0.00
2022-08-17T00:03:23.129Z,0.00
2022-08-17T00:04:22.100Z,0.00
2022-08-17T00:05:22.093Z,0.00
2022-08-17T00:06:22.082Z,0.00
2022-08-17T00:07:22.072Z,0.00
2022-08-17T00:08:22.052Z,0.00
2022-08-17T00:09:22.069Z,0.00
2022-08-17T00:10:22.020Z,0.00
2022-08-17T00:11:22.023Z,0.00
2022-08-17T00:12:51.263Z,0.00
2022-08-17T00:13:22.995Z,0.00
2022-08-17T00:14:21.989Z,0.00
2022-08-17T00:15:21.991Z,0.00
2022-08-17T00:16:21.964Z,0.00
2022-08-17T00:17:22.951Z,0.00
2022-08-17T00:19:01.411Z,0.00
2022-08-17T00:19:22.941Z,0.00
2022-08-17T00:20:23.364Z,0.00
2022-08-17T00:21:25.092Z,0.00
2022-08-17T00:22:35.122Z,0.00
2022-08-17T00:23:22.882Z,0.00
2022-08-17T00:24:21.881Z,0.00
2022-08-17T00:25:21.863Z,0.00
2022-08-17T00:26:35.807Z,0.00
2022-08-17T00:27:22.850Z,0.00
2022-08-17T00:28:21.833Z,0.00
2022-08-17T00:29:21.821Z,0.00
2022-08-17T00:30:21.803Z,0.00
2022-08-17T00:31:21.803Z,0.00
2022-08-17T00:33:12.247Z,0.00
2022-08-17T00:33:23.573Z,0.00
2022-08-17T00:34:21.763Z,0.00
2022-08-17T00:35:21.753Z,0.00
2022-08-17T00:36:21.746Z,0.00
2022-08-17T00:37:21.743Z,0.00
2022-08-17T00:38:21.742Z,0.00
2022-08-17T00:39:21.712Z,0.00
2022-08-17T00:40:21.702Z,0.00
2022-08-17T00:41:21.694Z,0.00
2022-08-17T00:42:21.674Z,0.00
2022-08-17T00:43:21.664Z,0.00
2022-08-17T00:44:21.673Z,0.00
2022-08-17T00:45:22.643Z,0.00
2022-08-17T00:46:21.625Z,0.00
2022-08-17T00:47:21.615Z,0.00
2022-08-17T00:48:29.625Z,0.00
2022-08-17T00:49:22.625Z,0.00
2022-08-17T00:50:21.584Z,0.00
2022-08-17T00:51:21.574Z,0.00
2022-08-17T00:52:21.567Z,0.00
2022-08-17T00:53:21.554Z,0.00
2022-08-17T00:54:21.544Z,0.00
2022-08-17T00:55:21.635Z,0.00
2022-08-17T00:56:21.517Z,0.00
2022-08-17T00:57:21.513Z,0.00
2022-08-17T00:58:30.437Z,0.00
2022-08-17T00:59:22.493Z,0.00
2022-08-17T01:00:21.515Z,0.00
2022-08-17T01:01:22.085Z,0.00
2022-08-17T01:02:21.475Z,0.00
2022-08-17T01:03:21.437Z,0.00
2022-08-17T01:04:21.428Z,0.00
2022-08-17T01:05:21.418Z,0.00
2022-08-17T01:06:21.437Z,0.00
2022-08-17T01:07:21.431Z,0.00
2022-08-17T01:08:21.377Z,0.00
2022-08-17T01:09:21.408Z,0.00
2022-08-17T01:11:00.476Z,0.00
2022-08-17T01:11:22.377Z,0.00
2022-08-17T01:12:21.338Z,0.00
2022-08-17T01:13:21.332Z,0.00
2022-08-17T01:14:21.319Z,0.00
2022-08-17T01:15:21.308Z,0.00
2022-08-17T01:16:21.298Z,0.00
2022-08-17T01:17:21.316Z,0.00
2022-08-17T01:18:21.296Z,0.00
2022-08-17T01:19:21.267Z,0.00
2022-08-17T01:20:21.259Z,0.00
2022-08-17T01:21:21.253Z,0.00
2022-08-17T01:22:21.219Z,0.00
2022-08-17T01:23:21.396Z,0.00
2022-08-17T01:24:21.199Z,0.00
2022-08-17T01:25:21.200Z,0.00
2022-08-17T01:26:21.180Z,0.00
2022-08-17T01:27:21.175Z,0.00
2022-08-17T01:28:53.073Z,0.00
2022-08-17T01:29:22.180Z,0.00
2022-08-17T01:30:57.879Z,0.00
2022-08-17T01:31:22.120Z,0.00
2022-08-17T01:32:21.108Z,0.00
2022-08-17T01:33:21.099Z,0.00
2022-08-17T01:34:21.083Z,0.00
2022-08-17T01:35:21.091Z,0.00
2022-08-17T01:36:21.060Z,0.00
2022-08-17T01:37:21.061Z,0.00
2022-08-17T01:38:27.157Z,0.00
2022-08-17T01:39:22.033Z,0.00
2022-08-17T01:40:21.062Z,0.00
2022-08-17T01:41:21.011Z,0.00
2022-08-17T01:42:20.990Z,0.00
2022-08-17T01:43:20.989Z,0.00
2022-08-17T01:44:20.970Z,0.00
2022-08-17T01:45:20.962Z,0.00
2022-08-17T01:46:41.950Z,0.00
2022-08-17T01:47:20.941Z,0.00
2022-08-17T01:48:20.930Z,0.00
2022-08-17T01:49:20.955Z,0.00
2022-08-17T01:50:20.911Z,0.00
2022-08-17T01:51:20.922Z,0.00
2022-08-17T01:52:20.881Z,0.00
2022-08-17T01:53:20.873Z,0.00
2022-08-17T01:54:20.865Z,0.00
2022-08-17T01:55:24.560Z,0.00
2022-08-17T01:56:21.861Z,0.00
2022-08-17T01:57:20.832Z,0.00
2022-08-17T01:58:20.822Z,0.00
2022-08-17T01:59:20.812Z,0.00
2022-08-17T02:00:20.793Z,0.00
2022-08-17T02:01:20.833Z,0.00
2022-08-17T02:02:30.253Z,0.00
2022-08-17T02:03:21.763Z,0.00
2022-08-17T02:04:20.753Z,0.00
2022-08-17T02:05:20.742Z,0.00
2022-08-17T02:06:27.658Z,0.00
2022-08-17T02:07:21.762Z,0.00
2022-08-17T02:08:37.135Z,0.00
2022-08-17T02:09:23.273Z,0.00
2022-08-17T02:10:20.693Z,0.00
2022-08-17T02:11:20.675Z,0.00
2022-08-17T02:12:38.790Z,0.00
2022-08-17T02:13:21.704Z,0.00
2022-08-17T02:14:20.644Z,0.00
2022-08-17T02:15:20.642Z,0.00
2022-08-17T02:16:20.624Z,0.00
2022-08-17T02:17:20.614Z,0.00
2022-08-17T02:18:20.604Z,0.00
2022-08-17T02:19:20.625Z,0.00
2022-08-17T02:20:41.351Z,0.00
2022-08-17T02:21:21.574Z,0.00
2022-08-17T02:22:20.555Z,0.00
2022-08-17T02:23:20.554Z,0.00
2022-08-17T02:24:58.755Z,0.00
2022-08-17T02:25:21.545Z,0.00
2022-08-17T02:26:24.238Z,0.00
2022-08-17T02:27:21.505Z,0.00
2022-08-17T02:28:20.495Z,0.00
2022-08-17T02:29:20.487Z,0.00
2022-08-17T02:30:59.699Z,0.00
2022-08-17T02:31:21.483Z,0.00
2022-08-17T02:32:25.418Z,0.00
2022-08-17T02:33:21.444Z,0.00
2022-08-17T02:34:20.435Z,0.00
2022-08-17T02:35:20.417Z,0.00
2022-08-17T02:36:25.421Z,0.00
2022-08-17T02:37:21.404Z,0.00
2022-08-17T02:38:20.385Z,0.00
2022-08-17T02:39:20.377Z,0.00
2022-08-17T02:40:35.603Z,0.00
2022-08-17T02:41:21.377Z,0.00
2022-08-17T02:42:20.341Z,0.00
2022-08-17T02:43:20.336Z,0.00
2022-08-17T02:44:38.922Z,0.00
2022-08-17T02:45:21.307Z,0.00
2022-08-17T02:46:20.313Z,0.00
2022-08-17T02:47:20.311Z,0.00
2022-08-17T02:48:30.778Z,0.00
2022-08-17T02:49:21.268Z,0.00
2022-08-17T02:50:20.260Z,0.00
2022-08-17T02:51:20.249Z,0.00
2022-08-17T02:52:42.705Z,0.00
2022-08-17T02:53:21.248Z,0.00
2022-08-17T02:54:40.614Z,0.00
2022-08-17T02:55:21.208Z,0.00
2022-08-17T02:56:20.181Z,0.00
2022-08-17T02:57:20.176Z,0.00
2022-08-17T02:58:34.714Z,0.00
2022-08-17T02:59:21.171Z,0.00
2022-08-17T03:00:20.139Z,0.00
2022-08-17T03:01:20.140Z,0.00
2022-08-17T03:02:20.118Z,0.00
2022-08-17T03:03:20.111Z,0.00
2022-08-17T03:04:20.120Z,0.00
2022-08-17T03:05:20.091Z,0.00
2022-08-17T03:06:20.070Z,0.00
2022-08-17T03:07:20.063Z,0.00
2022-08-17T03:08:20.052Z,0.00
2022-08-17T03:09:20.041Z,0.00
2022-08-17T03:10:20.049Z,0.00
2022-08-17T03:11:20.021Z,0.00
2022-08-17T03:12:20.000Z,0.00
2022-08-17T03:13:20.001Z,0.00
2022-08-17T03:14:19.981Z,0.00
2022-08-17T03:15:20.998Z,0.00
2022-08-17T03:16:19.981Z,0.00
2022-08-17T03:17:19.950Z,0.00
2022-08-17T03:18:24.841Z,0.00
2022-08-17T03:19:20.928Z,0.00
2022-08-17T03:20:19.911Z,0.00
2022-08-17T03:21:19.924Z,0.00
2022-08-17T03:22:35.672Z,0.00
2022-08-17T03:23:24.267Z,0.00
2022-08-17T03:24:19.870Z,0.00
2022-08-17T03:25:19.872Z,0.00
2022-08-17T03:26:19.870Z,0.00
2022-08-17T03:27:19.840Z,0.00
2022-08-17T03:28:19.832Z,0.00
2022-08-17T03:29:19.812Z,0.00
2022-08-17T03:30:21.249Z,0.00
2022-08-17T03:31:19.792Z,0.00
2022-08-17T03:32:19.803Z,0.00
2022-08-17T03:33:19.776Z,0.00
2022-08-17T03:34:19.753Z,0.00
2022-08-17T03:35:19.750Z,0.00
2022-08-17T03:36:19.741Z,0.00
2022-08-17T03:37:19.723Z,0.00
2022-08-17T03:38:19.744Z,4.00
2022-08-17T03:39:19.702Z,4.00
2022-08-17T03:40:41.082Z,0.00
2022-08-17T03:41:20.685Z,0.00
2022-08-17T03:42:32.396Z,4.00
2022-08-17T03:43:20.673Z,4.00
2022-08-17T03:44:19.643Z,4.00
2022-08-17T03:45:19.634Z,4.00
2022-08-17T03:46:32.457Z,4.00
2022-08-17T03:47:20.611Z,8.00
2022-08-17T03:48:19.594Z,8.00
2022-08-17T03:49:19.613Z,8.00
2022-08-17T03:50:19.575Z,8.00
2022-08-17T03:51:19.564Z,8.00
2022-08-17T03:52:19.554Z,12.00
2022-08-17T03:53:19.552Z,16.00
2022-08-17T03:54:19.535Z,16.00
2022-08-17T03:55:19.547Z,20.00
2022-08-17T03:56:20.504Z,20.00
2022-08-17T03:57:19.527Z,24.00
2022-08-17T03:58:19.485Z,28.00
2022-08-17T03:59:21.024Z,32.00
2022-08-17T04:00:19.465Z,40.00
2022-08-17T04:01:19.512Z,44.00
2022-08-17T04:02:19.444Z,52.00
2022-08-17T04:03:19.435Z,56.00
2022-08-17T04:04:19.415Z,64.00
2022-08-17T04:05:20.414Z,76.00
2022-08-17T04:06:19.395Z,88.00
2022-08-17T04:07:19.406Z,104.00
2022-08-17T04:08:19.375Z,116.00
2022-08-17T04:09:19.367Z,136.00
2022-08-17T04:10:21.013Z,156.00
2022-08-17T04:11:19.347Z,176.00
2022-08-17T04:12:19.336Z,200.00
2022-08-17T04:13:24.205Z,228.00
2022-08-17T04:14:20.306Z,252.00
2022-08-17T04:15:19.297Z,272.00
2022-08-17T04:16:19.291Z,276.00
2022-08-17T04:17:19.277Z,284.00
2022-08-17T04:18:19.318Z,288.00
2022-08-17T04:19:19.258Z,304.00
2022-08-17T04:20:19.258Z,316.00
2022-08-17T04:21:19.238Z,332.00
2022-08-17T04:22:33.203Z,344.00
2022-08-17T04:23:20.227Z,360.00
2022-08-17T04:24:19.197Z,372.00
2022-08-17T04:25:19.177Z,396.00
2022-08-17T04:26:53.024Z,424.00
2022-08-17T04:27:20.167Z,468.00
2022-08-17T04:28:19.147Z,516.00
2022-08-17T04:29:19.158Z,564.00
2022-08-17T04:30:19.127Z,608.00
2022-08-17T04:31:19.117Z,652.00
2022-08-17T04:32:58.377Z,696.00
2022-08-17T04:33:20.123Z,744.00
2022-08-17T04:34:19.872Z,792.00
2022-08-17T04:35:19.100Z,844.00
2022-08-17T04:36:19.059Z,912.00
2022-08-17T04:37:19.039Z,996.00
2022-08-17T04:38:19.051Z,1092.00
2022-08-17T04:39:19.029Z,1180.00
2022-08-17T04:40:19.066Z,1256.00
2022-08-17T04:41:19.018Z,1320.00
2022-08-17T04:42:18.990Z,1372.00
2022-08-17T04:43:19.046Z,1444.00
2022-08-17T04:44:37.031Z,1540.00
2022-08-17T04:45:19.959Z,1648.00
2022-08-17T04:46:18.971Z,1776.00
2022-08-17T04:47:18.930Z,1928.00
2022-08-17T04:48:18.928Z,2056.00
2022-08-17T04:49:18.948Z,2192.00
2022-08-17T04:50:18.927Z,2336.00
2022-08-17T04:51:18.895Z,2488.00
2022-08-17T04:52:32.256Z,2636.00
2022-08-17T04:53:19.870Z,2768.00
2022-08-17T04:54:18.860Z,2884.00
2022-08-17T04:55:18.841Z,2980.00
2022-08-17T04:56:19.044Z,3092.00
2022-08-17T04:57:18.850Z,3248.00
2022-08-17T04:58:18.811Z,3384.00
2022-08-17T04:59:18.801Z,3520.00
2022-08-17T05:00:18.791Z,3604.00
2022-08-17T05:01:23.229Z,3648.00
2022-08-17T05:02:19.801Z,3684.00
2022-08-17T05:03:18.762Z,3732.00
2022-08-17T05:04:33.402Z,3812.00
2022-08-17T05:05:19.741Z,3892.00
2022-08-17T05:06:18.731Z,4040.00
2022-08-17T05:07:23.503Z,4172.00
2022-08-17T05:08:19.734Z,4292.00
2022-08-17T05:09:18.692Z,4428.00
2022-08-17T05:10:18.682Z,4564.00
2022-08-17T05:11:18.674Z,4644.00
2022-08-17T05:12:18.662Z,4672.00
2022-08-17T05:13:18.672Z,4664.00
2022-08-17T05:14:18.645Z,4656.00
2022-08-17T05:15:18.623Z,4636.00
2022-08-17T05:16:18.622Z,4604.00
2022-08-17T05:17:18.603Z,4560.00
2022-08-17T05:18:18.602Z,4524.00
2022-08-17T05:19:18.624Z,4516.00
2022-08-17T05:20:18.571Z,4548.00
2022-08-17T05:21:18.557Z,4576.00
2022-08-17T05:22:18.544Z,4532.00
2022-08-17T05:23:18.532Z,4564.00
2022-08-17T05:24:39.114Z,4592.00
2022-08-17T05:25:19.534Z,4584.00
2022-08-17T05:26:26.319Z,4576.00
2022-08-17T05:27:19.496Z,4592.00
2022-08-17T05:28:18.505Z,4704.00
2022-08-17T05:29:18.454Z,4820.00
2022-08-17T05:30:18.454Z,4976.00
2022-08-17T05:31:18.458Z,5084.00
2022-08-17T05:32:37.773Z,5088.00
2022-08-17T05:33:19.416Z,5108.00
2022-08-17T05:34:18.405Z,5076.00
2022-08-17T05:35:18.394Z,5036.00
2022-08-17T05:36:43.414Z,5064.00
2022-08-17T05:37:19.373Z,5108.00
2022-08-17T05:38:18.355Z,5300.00
2022-08-17T05:39:18.346Z,5304.00
2022-08-17T05:40:18.336Z,5516.00
2022-08-17T05:41:18.316Z,5824.00
2022-08-17T05:42:18.337Z,6252.00
2022-08-17T05:43:18.305Z,6652.00
2022-08-17T05:44:18.287Z,7080.00
2022-08-17T05:45:39.877Z,7436.00
2022-08-17T05:46:19.267Z,7848.00
2022-08-17T05:47:18.262Z,8104.00
2022-08-17T05:48:18.260Z,8408.00
2022-08-17T05:49:18.229Z,8500.00
2022-08-17T05:50:19.586Z,8628.00
2022-08-17T05:51:19.219Z,8960.00
2022-08-17T05:52:18.898Z,9452.00
2022-08-17T05:53:18.209Z,10108.00
2022-08-17T05:54:18.176Z,10296.00
2022-08-17T05:55:18.162Z,10636.00
2022-08-17T05:56:30.179Z,9996.00
2022-08-17T05:57:20.873Z,9008.00
2022-08-17T05:58:18.130Z,9472.00
2022-08-17T05:59:18.138Z,10380.00
2022-08-17T06:00:20.160Z,12792.00
2022-08-17T06:01:18.155Z,13108.00
2022-08-17T06:02:18.082Z,14316.00
2022-08-17T06:03:18.080Z,15468.00
2022-08-17T06:04:18.088Z,16608.00
2022-08-17T06:05:18.084Z,16464.00
2022-08-17T06:06:18.045Z,18784.00
2022-08-17T06:07:18.023Z,19520.00
2022-08-17T06:08:18.021Z,19168.00
2022-08-17T06:09:24.765Z,20448.00
2022-08-17T06:10:19.018Z,20128.00
2022-08-17T06:11:19.769Z,19776.00
2022-08-17T06:12:19.871Z,22080.00
2022-08-17T06:13:17.961Z,21824.00
2022-08-17T06:14:17.959Z,21120.00
2022-08-17T06:15:17.941Z,19328.00
2022-08-17T06:16:33.859Z,15308.00
2022-08-17T06:17:18.914Z,17440.00
2022-08-17T06:18:19.204Z,17472.00
2022-08-17T06:19:17.892Z,17280.00
2022-08-17T06:20:17.883Z,17024.00
2022-08-17T06:21:17.874Z,17312.00
2022-08-17T06:22:18.885Z,17952.00
2022-08-17T06:23:17.851Z,17568.00
2022-08-17T06:24:17.843Z,17536.00
2022-08-17T06:25:17.827Z,18080.00
2022-08-17T06:26:17.822Z,19680.00
2022-08-17T06:27:17.834Z,19104.00
2022-08-17T06:28:17.794Z,18880.00
2022-08-17T06:29:18.875Z,21216.00
2022-08-17T06:30:17.778Z,14892.00
2022-08-17T06:31:17.765Z,13428.00
2022-08-17T06:32:17.754Z,11912.00
2022-08-17T06:33:17.757Z,10576.00
2022-08-17T06:34:17.735Z,9364.00
2022-08-17T06:35:17.722Z,8324.00
2022-08-17T06:36:17.724Z,7568.00
2022-08-17T06:37:17.696Z,7136.00
2022-08-17T06:38:37.007Z,6816.00
2022-08-17T06:39:18.686Z,6620.00
2022-08-17T06:40:17.667Z,6468.00
2022-08-17T06:41:17.655Z,6284.00
2022-08-17T06:43:02.513Z,6160.00
2022-08-17T06:43:18.649Z,6212.00
2022-08-17T06:44:43.513Z,6436.00
2022-08-17T06:45:18.618Z,6808.00
2022-08-17T06:46:17.599Z,7264.00
2022-08-17T06:47:28.815Z,7700.00
2022-08-17T06:48:18.591Z,8140.00
2022-08-17T06:49:17.586Z,8504.00
2022-08-17T06:50:17.560Z,8680.00
2022-08-17T06:51:17.538Z,8688.00
2022-08-17T06:52:37.123Z,8588.00
2022-08-17T06:53:18.518Z,8348.00
2022-08-17T06:54:17.538Z,8356.00
2022-08-17T06:55:18.095Z,8768.00
2022-08-17T06:56:17.489Z,9300.00
2022-08-17T06:57:17.479Z,9968.00
2022-08-17T06:58:17.469Z,10736.00
2022-08-17T06:59:17.451Z,11632.00
2022-08-17T07:00:17.460Z,12000.00
2022-08-17T07:01:17.470Z,12032.00
2022-08-17T07:02:17.420Z,11880.00
2022-08-17T07:03:17.410Z,11624.00
2022-08-17T07:04:17.400Z,11536.00
2022-08-17T07:05:17.410Z,11704.00
2022-08-17T07:06:17.380Z,12056.00
2022-08-17T07:07:17.361Z,12708.00
2022-08-17T07:08:17.352Z,13728.00
2022-08-17T07:09:17.342Z,14784.00
2022-08-17T07:10:17.342Z,15272.00
2022-08-17T07:11:17.342Z,15504.00
2022-08-17T07:12:17.311Z,16168.00
2022-08-17T07:13:17.293Z,17600.00
2022-08-17T07:14:17.579Z,18528.00
2022-08-17T07:15:17.273Z,19104.00
2022-08-17T07:16:17.274Z,17472.00
2022-08-17T07:17:17.296Z,15784.00
2022-08-17T07:18:17.261Z,14848.00
2022-08-17T07:19:17.244Z,14284.00
2022-08-17T07:20:17.223Z,13908.00
2022-08-17T07:21:19.113Z,13256.00
2022-08-17T07:22:17.264Z,12164.00
2022-08-17T07:23:17.184Z,11256.00
2022-08-17T07:24:29.839Z,10484.00
2022-08-17T07:25:18.164Z,9920.00
2022-08-17T07:26:17.156Z,9528.00
2022-08-17T07:27:17.145Z,9240.00
2022-08-17T07:28:17.155Z,8992.00
2022-08-17T07:29:17.145Z,8800.00
2022-08-17T07:30:17.114Z,8736.00
2022-08-17T07:31:17.114Z,8864.00
2022-08-17T07:32:17.086Z,9116.00
2022-08-17T07:33:17.085Z,9384.00
2022-08-17T07:34:17.095Z,9616.00
2022-08-17T07:35:17.080Z,9900.00
2022-08-17T07:36:17.049Z,10256.00
2022-08-17T07:37:17.028Z,10640.00
2022-08-17T07:38:25.788Z,10876.00
2022-08-17T07:39:18.027Z,10792.00
2022-08-17T07:40:17.238Z,10340.00
2022-08-17T07:41:16.994Z,9768.00
2022-08-17T07:42:16.981Z,9268.00
2022-08-17T07:43:22.071Z,8832.00
2022-08-17T07:44:17.989Z,8448.00
2022-08-17T07:45:16.949Z,8124.00
2022-08-17T07:46:16.939Z,7960.00
2022-08-17T07:47:16.920Z,8012.00
2022-08-17T07:48:16.919Z,8288.00
2022-08-17T07:49:16.908Z,8664.00
2022-08-17T07:50:16.939Z,9104.00
2022-08-17T07:51:16.880Z,9612.00
2022-08-17T07:52:47.415Z,10112.00
2022-08-17T07:53:17.861Z,10556.00
2022-08-17T07:54:16.850Z,10984.00
2022-08-17T07:55:16.843Z,11600.00
2022-08-17T07:56:16.852Z,12340.00
2022-08-17T07:57:16.811Z,13156.00
2022-08-17T07:58:16.811Z,13596.00
2022-08-17T07:59:16.793Z,13604.00
2022-08-17T08:00:16.828Z,13296.00
2022-08-17T08:01:17.809Z,12912.00
2022-08-17T08:02:16.987Z,12532.00
2022-08-17T08:03:16.742Z,12268.00
2022-08-17T08:04:19.524Z,12136.00
2022-08-17T08:05:29.857Z,12212.00
2022-08-17T08:06:17.722Z,12668.00
2022-08-17T08:07:16.705Z,13868.00
2022-08-17T08:08:16.732Z,16176.00
2022-08-17T08:09:16.685Z,19840.00
2022-08-17T08:10:16.674Z,24192.00
2022-08-17T08:11:16.664Z,28064.00
2022-08-17T08:12:16.666Z,25568.00
2022-08-17T08:13:16.652Z,25792.00
2022-08-17T08:14:16.656Z,26368.00
2022-08-17T08:15:16.616Z,25440.00
2022-08-17T08:16:16.615Z,24864.00
2022-08-17T08:17:16.595Z,24288.00
2022-08-17T08:18:16.586Z,24000.00
2022-08-17T08:19:20.871Z,26048.00
2022-08-17T08:20:42.480Z,27136.00
2022-08-17T08:21:17.548Z,27616.00
2022-08-17T08:22:16.547Z,24832.00
2022-08-17T08:23:16.539Z,23072.00
2022-08-17T08:24:16.528Z,21792.00
2022-08-17T08:25:16.528Z,20704.00
2022-08-17T08:26:18.558Z,19232.00
2022-08-17T08:27:16.488Z,17792.00
2022-08-17T08:28:16.477Z,16388.00
2022-08-17T08:29:16.468Z,15620.00
2022-08-17T08:30:16.458Z,15300.00
2022-08-17T08:31:16.458Z,15148.00
2022-08-17T08:32:16.442Z,14880.00
2022-08-17T08:33:16.423Z,14384.00
2022-08-17T08:34:53.184Z,13784.00
2022-08-17T08:35:17.410Z,13264.00
2022-08-17T08:36:56.871Z,12780.00
2022-08-17T08:37:22.618Z,12388.00
2022-08-17T08:38:17.370Z,12016.00
2022-08-17T08:39:16.360Z,11644.00
2022-08-17T08:40:16.344Z,11364.00
2022-08-17T08:41:16.347Z,11120.00
2022-08-17T08:42:16.352Z,10820.00
2022-08-17T08:43:16.335Z,10428.00
2022-08-17T08:44:16.302Z,9988.00
2022-08-17T08:45:16.295Z,9544.00
2022-08-17T08:46:16.302Z,9116.00
2022-08-17T08:47:16.273Z,8700.00
2022-08-17T08:48:22.847Z,8320.00
2022-08-17T08:49:17.251Z,7996.00
2022-08-17T08:50:37.006Z,7772.00
2022-08-17T08:51:17.225Z,7604.00
2022-08-17T08:52:16.213Z,7448.00
2022-08-17T08:53:16.216Z,7284.00
2022-08-17T08:54:16.203Z,7124.00
2022-08-17T08:55:16.182Z,6992.00
2022-08-17T08:56:16.164Z,6904.00
2022-08-17T08:57:29.048Z,6832.00
2022-08-17T08:58:32.146Z,6776.00
2022-08-17T08:59:17.205Z,6800.00
2022-08-17T09:00:16.126Z,6900.00
2022-08-17T09:01:16.977Z,7100.00
2022-08-17T09:02:16.097Z,7380.00
2022-08-17T09:03:16.103Z,7680.00
2022-08-17T09:04:24.649Z,7912.00
2022-08-17T09:05:17.105Z,8232.00
2022-08-17T09:06:37.423Z,8432.00
2022-08-17T09:07:17.057Z,8452.00
2022-08-17T09:08:16.036Z,8340.00
2022-08-17T09:09:16.027Z,8172.00
2022-08-17T09:10:16.008Z,8004.00
2022-08-17T09:11:16.028Z,7904.00
2022-08-17T09:12:16.010Z,7960.00
2022-08-17T09:13:15.977Z,8084.00
2022-08-17T09:14:21.760Z,8232.00
2022-08-17T09:15:16.959Z,8428.00
2022-08-17T09:16:15.948Z,8648.00
2022-08-17T09:17:16.392Z,8840.00
2022-08-17T09:18:59.333Z,8980.00
2022-08-17T09:19:16.919Z,9096.00
2022-08-17T09:20:27.519Z,9236.00
2022-08-17T09:21:18.254Z,9484.00
2022-08-17T09:22:15.950Z,9896.00
2022-08-17T09:23:15.869Z,10404.00
2022-08-17T09:24:15.871Z,10968.00
2022-08-17T09:25:16.853Z,11580.00
2022-08-17T09:26:15.840Z,12216.00
2022-08-17T09:27:15.833Z,12828.00
2022-08-17T09:28:15.840Z,13384.00
2022-08-17T09:29:15.820Z,13672.00
2022-08-17T09:30:15.793Z,13828.00
2022-08-17T09:31:15.781Z,13576.00
2022-08-17T09:32:15.772Z,12912.00
2022-08-17T09:33:15.771Z,12016.00
2022-08-17T09:34:15.772Z,11172.00
2022-08-17T09:35:15.751Z,10476.00
2022-08-17T09:36:15.733Z,9972.00
2022-08-17T09:37:15.730Z,9656.00
2022-08-17T09:38:15.703Z,9480.00
2022-08-17T09:39:15.703Z,9484.00
2022-08-17T09:40:15.820Z,9608.00
2022-08-17T09:41:15.674Z,9764.00
2022-08-17T09:42:15.664Z,9936.00
2022-08-17T09:43:15.657Z,10116.00
2022-08-17T09:44:23.290Z,10252.00
2022-08-17T09:45:16.655Z,10336.00
2022-08-17T09:46:15.615Z,10424.00
2022-08-17T09:47:15.616Z,10528.00
2022-08-17T09:48:15.604Z,10684.00
2022-08-17T09:49:15.586Z,10856.00
2022-08-17T09:50:15.622Z,11096.00
2022-08-17T09:51:15.595Z,11436.00
2022-08-17T09:52:15.554Z,11808.00
2022-08-17T09:53:15.545Z,12208.00
2022-08-17T09:54:37.951Z,12600.00
2022-08-17T09:55:16.529Z,12976.00
2022-08-17T09:56:15.509Z,13544.00
2022-08-17T09:57:29.927Z,14300.00
2022-08-17T09:58:16.487Z,15188.00
2022-08-17T09:59:15.496Z,16224.00
2022-08-17T10:00:15.505Z,17248.00
2022-08-17T10:01:15.523Z,17888.00
2022-08-17T10:02:15.448Z,18112.00
2022-08-17T10:03:15.462Z,18208.00
2022-08-17T10:04:17.757Z,18464.00
2022-08-17T10:05:15.409Z,18880.00
2022-08-17T10:06:21.628Z,19264.00
2022-08-17T10:07:16.389Z,19424.00
2022-08-17T10:08:15.398Z,19392.00
2022-08-17T10:09:15.370Z,19296.00
2022-08-17T10:10:15.349Z,18560.00
2022-08-17T10:11:15.359Z,17504.00
2022-08-17T10:12:17.205Z,16532.00
2022-08-17T10:13:15.319Z,16388.00
2022-08-17T10:14:37.457Z,17120.00
2022-08-17T10:15:17.398Z,18304.00
2022-08-17T10:16:15.295Z,19392.00
2022-08-17T10:17:15.283Z,19968.00
2022-08-17T10:18:15.261Z,20064.00
2022-08-17T10:19:15.261Z,19872.00
2022-08-17T10:20:15.381Z,19584.00
2022-08-17T10:21:15.232Z,19488.00
2022-08-17T10:22:35.244Z,19776.00
2022-08-17T10:23:16.217Z,20160.00
2022-08-17T10:24:15.240Z,20192.00
2022-08-17T10:25:21.360Z,20352.00
2022-08-17T10:26:16.181Z,19968.00
2022-08-17T10:27:15.170Z,18848.00
2022-08-17T10:28:20.172Z,17536.00
2022-08-17T10:29:16.139Z,16248.00
2022-08-17T10:30:15.192Z,15816.00
2022-08-17T10:31:34.399Z,16204.00
2022-08-17T10:32:16.107Z,17152.00
2022-08-17T10:33:15.120Z,17792.00
2022-08-17T10:34:15.080Z,18816.00
2022-08-17T10:35:15.070Z,19840.00
2022-08-17T10:36:15.064Z,21184.00
2022-08-17T10:37:15.072Z,22656.00
2022-08-17T10:38:15.039Z,23648.00
2022-08-17T10:39:15.060Z,24160.00
2022-08-17T10:40:15.154Z,24864.00
2022-08-17T10:41:15.023Z,25728.00
2022-08-17T10:42:15.021Z,25792.00
2022-08-17T10:43:16.008Z,25152.00
2022-08-17T10:44:38.145Z,24576.00
2022-08-17T10:45:15.963Z,23872.00
2022-08-17T10:46:31.269Z,23008.00
2022-08-17T10:47:15.955Z,21824.00
2022-08-17T10:48:14.945Z,20704.00
2022-08-17T10:49:14.925Z,19904.00
2022-08-17T10:50:14.923Z,19552.00
2022-08-17T10:51:14.893Z,19328.00
2022-08-17T10:52:15.017Z,19328.00
2022-08-17T10:53:19.793Z,19520.00
2022-08-17T10:54:15.894Z,19872.00
2022-08-17T10:55:14.877Z,20224.00
2022-08-17T10:56:14.844Z,20384.00
2022-08-17T10:57:14.836Z,20288.00
2022-08-17T10:58:14.816Z,20032.00
2022-08-17T10:59:14.816Z,19456.00
2022-08-17T11:00:14.844Z,18720.00
2022-08-17T11:01:14.868Z,18336.00
2022-08-17T11:02:14.776Z,18400.00
2022-08-17T11:03:14.767Z,18592.00
2022-08-17T11:04:14.757Z,19104.00
2022-08-17T11:05:14.766Z,19552.00
2022-08-17T11:06:14.728Z,19744.00
2022-08-17T11:07:14.721Z,20000.00
2022-08-17T11:08:14.708Z,19744.00
2022-08-17T11:09:14.741Z,19168.00
2022-08-17T11:10:14.692Z,18560.00
2022-08-17T11:11:14.713Z,18720.00
2022-08-17T11:12:14.670Z,19072.00
2022-08-17T11:13:14.660Z,18944.00
2022-08-17T11:14:14.650Z,18688.00
2022-08-17T11:15:14.639Z,18816.00
2022-08-17T11:16:14.621Z,18816.00
2022-08-17T11:17:14.645Z,18848.00
2022-08-17T11:18:14.601Z,19168.00
2022-08-17T11:19:14.589Z,19744.00
2022-08-17T11:20:14.581Z,20992.00
2022-08-17T11:21:14.571Z,22528.00
2022-08-17T11:22:14.561Z,23616.00
2022-08-17T11:23:14.576Z,24288.00
2022-08-17T11:24:14.541Z,23776.00
2022-08-17T11:25:14.542Z,22144.00
2022-08-17T11:26:14.534Z,20928.00
2022-08-17T11:27:14.512Z,19840.00
2022-08-17T11:28:14.522Z,19008.00
2022-08-17T11:29:14.482Z,18080.00
2022-08-17T11:30:14.760Z,17088.00
2022-08-17T11:31:14.486Z,16356.00
2022-08-17T11:32:14.513Z,15872.00
2022-08-17T11:33:14.474Z,15888.00
2022-08-17T11:34:15.467Z,16568.00
2022-08-17T11:35:14.422Z,17792.00
2022-08-17T11:36:14.444Z,18816.00
2022-08-17T11:37:14.407Z,19584.00
2022-08-17T11:38:16.282Z,19936.00
2022-08-17T11:39:14.385Z,19968.00
2022-08-17T11:40:14.478Z,19520.00
2022-08-17T11:41:14.357Z,18016.00
2022-08-17T11:42:14.337Z,15828.00
2022-08-17T11:43:14.336Z,14000.00
2022-08-17T11:44:14.316Z,12404.00
2022-08-17T11:45:19.038Z,11128.00
2022-08-17T11:46:15.327Z,10068.00
2022-08-17T11:47:14.338Z,9416.00
2022-08-17T11:48:27.937Z,9388.00
2022-08-17T11:49:15.274Z,9888.00
2022-08-17T11:50:14.256Z,10600.00
2022-08-17T11:51:14.270Z,11332.00
2022-08-17T11:52:14.238Z,11892.00
2022-08-17T11:53:14.219Z,12444.00
2022-08-17T11:54:32.293Z,12880.00
2022-08-17T11:55:34.398Z,13104.00
2022-08-17T11:56:15.218Z,13984.00
2022-08-17T11:57:14.179Z,15584.00
2022-08-17T11:58:14.172Z,17632.00
2022-08-17T11:59:14.162Z,19072.00
2022-08-17T12:00:14.152Z,21472.00
2022-08-17T12:01:16.163Z,22944.00
2022-08-17T12:02:14.174Z,23296.00
2022-08-17T12:03:14.153Z,22656.00
2022-08-17T12:04:14.125Z,21664.00
2022-08-17T12:05:14.114Z,20128.00
2022-08-17T12:06:14.081Z,19104.00
2022-08-17T12:07:14.071Z,18336.00
2022-08-17T12:08:14.093Z,16364.00
2022-08-17T12:09:14.061Z,15040.00
2022-08-17T12:10:14.035Z,14812.00
2022-08-17T12:11:14.022Z,13496.00
2022-08-17T12:12:14.637Z,12676.00
2022-08-17T12:13:14.002Z,12100.00
2022-08-17T12:14:19.222Z,11716.00
2022-08-17T12:15:14.983Z,11580.00
2022-08-17T12:16:13.988Z,11272.00
2022-08-17T12:17:13.963Z,10956.00
2022-08-17T12:18:14.944Z,11864.00
2022-08-17T12:19:13.945Z,12680.00